Etusivu
METAR-TAF:

METAR-TAF

Lentoasemat :

Newnan-Coweta County Airport

Newnan, Georgia, Yhdysvallat

Leveyspiiri: 33-18-44N, Pituuspiiri: 084-46-13W, korkeus merenpinnasta: 296 m

Tämänhetkinen sää

Tämä raportti tehtiin 32 minuuttia sitten, kello 04.35 UTC
tyyntä
Lämpötila 8°C
Kosteus 57%
Ilmanpaine 1019 hPa
Näkyvyys: 16.1 km
selkeää

METAR: KCCO 190435Z AUTO 00000KT 10SM CLR 08/00 A3010 RMK AO2 T00810002

Aika: 00:07 (05:07 UTC)


TAF: puuttuu

Säähavainnot ja -ennusteet yli 4000 lentoasemalta (METAR- ja TAF-raportit).

Käytössä olevat sääasemat on merkitty karttaan keltaisilla ja punaisilla pisteillä.

Aseta hiiri pisteen päälle nähdäksesi sääaseman nimen.

Klikkaa sitten nähdäksesi säähavainnot ja -ennusteet.

Kartan vaihtaminen: klikkaa mustalla rastilla varustettuja vihreitä pisteitä, niin voit zoomata sisään; viivalla varustettua vihreää pistettä, niin voit zoomata ulos tai vihreitä nuolia, niin pääset viereisille kartoille.


METAR-TAF: